Terminal Aerodrome Forecast
Issued by NWS Corpus Christi, TX

Home | Current Version | Previous Version | Text Only | Print | Product List | Glossary On
Versions: 1 2 3 4 5 6 7 8 9 10 11 12 13 14 15
000
FTUS44 KCRP 301700
TAFCRP
TAF
KCRP 301729Z 3018/3118 18015G22KT P6SM SCT012 BKN025
     FM302000 14019G26KT P6SM SCT028 BKN250
     FM310100 15012KT P6SM SCT012 BKN200
     FM310900 16006KT 5SM BR BKN007 BKN015
      TEMPO 3109/3111 SCT007
     FM311500 17012KT P6SM SCT007 BKN015=

USA.gov is the U.S. government's official web portal to all federal, state and local government web resources and services.